createdAt,value
2018-04-01T00:00:12.824Z,4.84
2018-04-01T00:01:13.047Z,4.92
2018-04-01T00:02:13.271Z,4.74
2018-04-01T00:03:13.498Z,4.86
2018-04-01T00:04:13.721Z,4.82
2018-04-01T00:05:13.947Z,4.84
2018-04-01T00:06:14.172Z,4.73
2018-04-01T00:07:14.396Z,4.67
2018-04-01T00:08:14.628Z,4.52
2018-04-01T00:09:14.845Z,4.50
2018-04-01T00:10:15.070Z,4.55
2018-04-01T00:11:15.301Z,4.45
2018-04-01T00:12:15.522Z,4.50
2018-04-01T00:13:15.758Z,4.49
2018-04-01T00:14:15.976Z,4.52
2018-04-01T00:15:16.265Z,4.34
2018-04-01T00:16:16.428Z,4.30
2018-04-01T00:17:16.651Z,4.16
2018-04-01T00:18:16.874Z,3.94
2018-04-01T00:19:17.101Z,4.12
2018-04-01T00:20:17.325Z,4.22
2018-04-01T00:21:17.549Z,4.10
2018-04-01T00:22:17.781Z,4.20
2018-04-01T00:23:18.062Z,4.22
2018-04-01T00:24:18.171Z,4.08
2018-04-01T00:25:18.393Z,3.99
2018-04-01T00:26:18.614Z,3.87
2018-04-01T00:27:18.839Z,3.98
2018-04-01T00:28:19.063Z,4.06
2018-04-01T00:29:19.286Z,4.20
2018-04-01T00:30:19.514Z,4.23
2018-04-01T00:31:19.737Z,4.20
2018-04-01T00:32:19.959Z,4.31
2018-04-01T00:33:20.186Z,4.28
2018-04-01T00:34:20.410Z,4.31
2018-04-01T00:35:20.632Z,4.34
2018-04-01T00:36:20.856Z,4.32
2018-04-01T00:37:21.079Z,4.08
2018-04-01T00:38:21.303Z,4.14
2018-04-01T00:39:21.529Z,4.26
2018-04-01T00:40:21.753Z,4.31
2018-04-01T00:41:21.984Z,4.34
2018-04-01T00:42:22.210Z,4.42
2018-04-01T00:43:22.433Z,4.49
2018-04-01T00:44:22.654Z,4.40
2018-04-01T00:45:22.878Z,4.48
2018-04-01T00:46:23.112Z,4.50
2018-04-01T00:47:23.325Z,4.52
2018-04-01T00:48:23.548Z,4.52
2018-04-01T00:49:23.772Z,4.49
2018-04-01T00:50:23.996Z,4.42
2018-04-01T00:51:24.227Z,4.49
2018-04-01T00:52:24.448Z,4.55
2018-04-01T00:53:24.671Z,4.55
2018-04-01T00:54:24.899Z,4.55
2018-04-01T00:55:25.119Z,4.49
2018-04-01T00:56:25.342Z,4.44
2018-04-01T00:57:25.566Z,4.37
2018-04-01T00:58:25.791Z,4.31
2018-04-01T00:59:26.017Z,4.32
2018-04-01T01:00:26.271Z,4.32
2018-04-01T01:01:26.455Z,4.41
2018-04-01T01:02:26.682Z,4.34
2018-04-01T01:03:26.901Z,4.30
2018-04-01T01:04:27.128Z,4.23
2018-04-01T01:05:27.351Z,4.28
2018-04-01T01:06:27.574Z,4.30
2018-04-01T01:07:27.797Z,4.35
2018-04-01T01:08:28.022Z,4.26
2018-04-01T01:09:28.243Z,4.28
2018-04-01T01:10:28.468Z,4.35
2018-04-01T01:11:28.691Z,4.42
2018-04-01T01:12:28.914Z,4.48
2018-04-01T01:13:29.142Z,4.42
2018-04-01T01:14:29.364Z,4.60
2018-04-01T01:15:29.588Z,4.48
2018-04-01T01:16:29.812Z,4.38
2018-04-01T01:17:30.041Z,4.37
2018-04-01T01:18:30.262Z,4.17
2018-04-01T01:19:30.479Z,4.20
2018-04-01T01:20:30.706Z,4.19
2018-04-01T01:21:30.933Z,4.12
2018-04-01T01:22:31.155Z,4.17
2018-04-01T01:23:31.382Z,4.06
2018-04-01T01:24:31.629Z,4.12
2018-04-01T01:25:31.832Z,4.30
2018-04-01T01:26:32.058Z,4.20
2018-04-01T01:27:32.282Z,4.20
2018-04-01T01:28:32.504Z,4.10
2018-04-01T01:29:32.746Z,4.19
2018-04-01T01:30:32.954Z,4.20
2018-04-01T01:31:33.179Z,4.16
2018-04-01T01:32:33.412Z,4.13
2018-04-01T01:33:33.629Z,4.08
2018-04-01T01:34:33.854Z,4.32
2018-04-01T01:35:34.079Z,4.20
2018-04-01T01:36:34.298Z,4.35
2018-04-01T01:37:34.529Z,4.30
2018-04-01T01:38:34.748Z,4.35
2018-04-01T01:39:34.972Z,4.24
2018-04-01T01:40:35.198Z,4.26
2018-04-01T01:41:35.422Z,4.31
2018-04-01T01:42:35.648Z,4.14
2018-04-01T01:43:35.867Z,4.32
2018-04-01T01:44:36.094Z,4.31
2018-04-01T01:45:36.317Z,4.30
2018-04-01T01:46:36.539Z,4.40
2018-04-01T01:47:36.764Z,4.53
2018-04-01T01:48:36.990Z,4.73
2018-04-01T01:49:37.211Z,4.80
2018-04-01T01:50:37.434Z,4.86
2018-04-01T01:51:37.659Z,4.68
2018-04-01T01:52:37.882Z,4.78
2018-04-01T01:53:38.105Z,4.89
2018-04-01T01:54:38.333Z,4.89
2018-04-01T01:55:38.559Z,4.94
2018-04-01T01:56:38.783Z,4.78
2018-04-01T01:57:39.009Z,4.97
2018-04-01T01:58:39.252Z,4.87
2018-04-01T01:59:39.446Z,4.92
2018-04-01T02:00:39.668Z,4.87
2018-04-01T02:01:39.892Z,4.84
2018-04-01T02:02:40.116Z,4.74
2018-04-01T02:03:40.342Z,4.75
2018-04-01T02:04:40.566Z,4.68
2018-04-01T02:05:40.789Z,4.73
2018-04-01T02:06:41.020Z,4.60
2018-04-01T02:07:41.236Z,4.71
2018-04-01T02:08:41.462Z,4.87
2018-04-01T02:09:41.685Z,4.96
2018-04-01T02:10:41.911Z,4.97
2018-04-01T02:11:42.134Z,4.96
2018-04-01T02:12:42.358Z,5.02
2018-04-01T02:13:42.592Z,5.10
2018-04-01T02:14:42.819Z,5.08
2018-04-01T02:15:43.043Z,5.05
2018-04-01T02:16:43.269Z,5.04
2018-04-01T02:17:43.496Z,4.99
2018-04-01T02:18:43.718Z,4.92
2018-04-01T02:19:43.940Z,4.78
2018-04-01T02:20:44.177Z,4.86
2018-04-01T02:21:44.409Z,4.74
2018-04-01T02:22:44.629Z,4.87
2018-04-01T02:23:44.860Z,4.86
2018-04-01T02:24:45.085Z,4.80
2018-04-01T02:25:45.310Z,4.78
2018-04-01T02:26:45.535Z,4.75
2018-04-01T02:27:45.755Z,4.80
2018-04-01T02:28:45.973Z,4.82
2018-04-01T02:29:46.199Z,4.89
2018-04-01T02:30:46.425Z,4.97
2018-04-01T02:31:46.651Z,4.94
2018-04-01T02:32:46.871Z,5.02
2018-04-01T02:33:47.098Z,5.04
2018-04-01T02:34:47.322Z,5.05
2018-04-01T02:35:47.547Z,5.05
2018-04-01T02:36:47.773Z,5.05
2018-04-01T02:37:47.998Z,5.11
2018-04-01T02:38:48.222Z,5.08
2018-04-01T02:39:48.446Z,5.18
2018-04-01T02:40:48.679Z,5.12
2018-04-01T02:41:48.896Z,5.12
2018-04-01T02:42:49.118Z,5.07
2018-04-01T02:43:49.342Z,5.02
2018-04-01T02:44:49.568Z,4.80
2018-04-01T02:45:49.803Z,4.71
2018-04-01T02:46:50.037Z,4.73
2018-04-01T02:47:50.256Z,4.59
2018-04-01T02:48:50.493Z,4.62
2018-04-01T02:49:50.712Z,4.56
2018-04-01T02:50:50.935Z,4.42
2018-04-01T02:51:51.159Z,4.37
2018-04-01T02:52:51.383Z,4.45
2018-04-01T02:53:51.606Z,4.53
2018-04-01T02:54:51.832Z,4.78
2018-04-01T02:55:52.054Z,4.80
2018-04-01T02:56:52.276Z,4.86
2018-04-01T02:57:52.498Z,4.86
2018-04-01T02:58:52.721Z,4.84
2018-04-01T02:59:52.945Z,4.89
2018-04-01T03:00:53.179Z,4.75
2018-04-01T03:01:53.455Z,4.93
2018-04-01T03:02:53.637Z,4.94
2018-04-01T03:03:53.856Z,4.86
2018-04-01T03:04:54.082Z,4.86
2018-04-01T03:05:54.311Z,4.80
2018-04-01T03:06:54.535Z,4.73
2018-04-01T03:07:54.757Z,4.62
2018-04-01T03:08:54.978Z,4.68
2018-04-01T03:09:55.236Z,4.86
2018-04-01T03:10:55.457Z,4.89
2018-04-01T03:11:55.681Z,4.89
2018-04-01T03:12:55.911Z,4.99
2018-04-01T03:13:56.127Z,4.86
2018-04-01T03:14:56.358Z,4.73
2018-04-01T03:15:56.576Z,4.68
2018-04-01T03:16:56.792Z,4.70
2018-04-01T03:17:57.016Z,4.80
2018-04-01T03:18:57.246Z,4.84
2018-04-01T03:19:57.465Z,4.62
2018-04-01T03:20:57.691Z,4.73
2018-04-01T03:21:57.917Z,4.62
2018-04-01T03:22:58.139Z,4.58
2018-04-01T03:23:58.363Z,4.49
2018-04-01T03:24:58.586Z,4.70
2018-04-01T03:25:58.810Z,4.77
2018-04-01T03:26:59.035Z,4.68
2018-04-01T03:27:59.260Z,4.74
2018-04-01T03:28:59.490Z,4.77
2018-04-01T03:29:59.709Z,4.87
2018-04-01T03:30:59.941Z,4.73
2018-04-01T03:32:00.163Z,4.86
2018-04-01T03:33:00.390Z,4.90
2018-04-01T03:34:00.616Z,4.67
2018-04-01T03:35:00.840Z,4.67
2018-04-01T03:36:01.067Z,4.67
2018-04-01T03:37:01.296Z,4.67
2018-04-01T03:38:01.513Z,4.52
2018-04-01T03:39:01.737Z,4.66
2018-04-01T03:40:01.957Z,4.71
2018-04-01T03:41:02.183Z,4.62
2018-04-01T03:42:02.409Z,4.52
2018-04-01T03:43:02.633Z,4.71
2018-04-01T03:44:02.857Z,4.70
2018-04-01T03:45:03.082Z,4.71
2018-04-01T03:46:03.308Z,4.74
2018-04-01T03:47:03.529Z,4.68
2018-04-01T03:48:03.750Z,4.56
2018-04-01T03:49:03.974Z,4.52
2018-04-01T03:50:04.197Z,4.49
2018-04-01T03:51:04.422Z,4.53
2018-04-01T03:52:04.648Z,4.73
2018-04-01T03:53:04.872Z,4.68
2018-04-01T03:54:05.102Z,4.49
2018-04-01T03:55:05.326Z,4.45
2018-04-01T03:56:05.551Z,4.35
2018-04-01T03:57:05.776Z,4.34
2018-04-01T03:58:05.999Z,4.35
2018-04-01T03:59:06.225Z,4.32
2018-04-01T04:00:06.450Z,4.52
2018-04-01T04:01:06.679Z,4.62
2018-04-01T04:02:06.900Z,4.86
2018-04-01T04:03:07.122Z,4.70
2018-04-01T04:04:07.347Z,4.78
2018-04-01T04:05:07.571Z,4.89
2018-04-01T04:06:07.795Z,4.93
2018-04-01T04:07:08.020Z,4.93
2018-04-01T04:08:08.243Z,4.84
2018-04-01T04:09:08.468Z,4.78
2018-04-01T04:10:08.692Z,4.73
2018-04-01T04:11:08.916Z,4.78
2018-04-01T04:12:09.144Z,4.66
2018-04-01T04:13:09.366Z,4.75
2018-04-01T04:14:09.593Z,4.93
2018-04-01T04:15:09.817Z,4.90
2018-04-01T04:16:10.038Z,4.78
2018-04-01T04:17:10.266Z,4.77
2018-04-01T04:18:10.492Z,4.67
2018-04-01T04:19:10.714Z,4.62
2018-04-01T04:20:10.939Z,4.55
2018-04-01T04:21:11.164Z,4.59
2018-04-01T04:22:11.385Z,4.60
2018-04-01T04:23:11.612Z,4.58
2018-04-01T04:24:11.837Z,4.75
2018-04-01T04:25:12.060Z,4.92
2018-04-01T04:26:12.287Z,4.96
2018-04-01T04:27:12.509Z,5.08
2018-04-01T04:28:12.739Z,4.96
2018-04-01T04:29:12.955Z,5.11
2018-04-01T04:30:13.183Z,4.92
2018-04-01T04:31:13.406Z,4.89
2018-04-01T04:32:13.629Z,5.07
2018-04-01T04:33:13.856Z,5.04
2018-04-01T04:34:14.081Z,5.04
2018-04-01T04:35:14.305Z,5.18
2018-04-01T04:36:14.525Z,5.10
2018-04-01T04:37:14.750Z,5.08
2018-04-01T04:38:14.993Z,5.08
2018-04-01T04:39:15.219Z,5.17
2018-04-01T04:40:15.443Z,5.17
2018-04-01T04:41:15.671Z,5.18
2018-04-01T04:42:15.896Z,5.18
2018-04-01T04:43:16.121Z,5.29
2018-04-01T04:44:16.358Z,5.33
2018-04-01T04:45:16.581Z,5.43
2018-04-01T04:46:16.804Z,5.41
2018-04-01T04:47:17.028Z,5.54
2018-04-01T04:48:17.254Z,5.57
2018-04-01T04:49:17.475Z,5.56
2018-04-01T04:50:17.694Z,5.59
2018-04-01T04:51:17.923Z,5.50
2018-04-01T04:52:18.146Z,5.64
2018-04-01T04:53:18.372Z,5.71
2018-04-01T04:54:18.593Z,5.56
2018-04-01T04:55:18.822Z,5.64
2018-04-01T04:56:19.048Z,5.68
2018-04-01T04:57:19.269Z,5.80
2018-04-01T04:58:19.494Z,5.79
2018-04-01T04:59:19.719Z,5.76
2018-04-01T05:00:19.946Z,5.84
2018-04-01T05:01:20.168Z,5.87
2018-04-01T05:02:20.394Z,5.90
2018-04-01T05:03:20.620Z,5.91
2018-04-01T05:04:20.846Z,5.91
2018-04-01T05:05:21.074Z,5.91
2018-04-01T05:06:21.298Z,5.87
2018-04-01T05:07:21.522Z,5.99
2018-04-01T05:08:21.773Z,5.84
2018-04-01T05:09:21.968Z,5.86
2018-04-01T05:10:22.202Z,5.86
2018-04-01T05:11:22.430Z,5.87
2018-04-01T05:12:22.649Z,5.86
2018-04-01T05:13:22.875Z,5.84
2018-04-01T05:14:23.104Z,5.89
2018-04-01T05:15:23.325Z,5.91
2018-04-01T05:16:23.555Z,5.93
2018-04-01T05:17:23.784Z,5.97
2018-04-01T05:18:24.009Z,5.99
2018-04-01T05:19:24.235Z,5.98
2018-04-01T05:20:24.460Z,5.91
2018-04-01T05:21:24.682Z,6.02
2018-04-01T05:22:24.906Z,6.04
2018-04-01T05:23:25.133Z,5.99
2018-04-01T05:24:25.360Z,6.04
2018-04-01T05:25:25.580Z,6.04
2018-04-01T05:26:25.805Z,5.97
2018-04-01T05:27:26.031Z,6.08
2018-04-01T05:28:26.264Z,6.16
2018-04-01T05:29:26.484Z,6.02
2018-04-01T05:30:26.713Z,6.07
2018-04-01T05:31:26.936Z,6.04
2018-04-01T05:32:27.162Z,5.71
2018-04-01T05:33:27.386Z,5.65
2018-04-01T05:34:27.613Z,5.79
2018-04-01T05:35:27.839Z,5.79
2018-04-01T05:36:28.067Z,5.71
2018-04-01T05:37:28.291Z,5.59
2018-04-01T05:38:28.515Z,5.53
2018-04-01T05:39:28.740Z,5.54
2018-04-01T05:40:28.968Z,5.43
2018-04-01T05:41:29.190Z,5.53
2018-04-01T05:42:29.419Z,5.53
2018-04-01T05:43:29.644Z,5.61
2018-04-01T05:44:29.868Z,5.59
2018-04-01T05:45:30.092Z,5.72
2018-04-01T05:46:30.321Z,5.56
2018-04-01T05:47:30.544Z,5.65
2018-04-01T05:48:30.770Z,5.73
2018-04-01T05:49:30.996Z,5.64
2018-04-01T05:50:31.220Z,5.47
2018-04-01T05:51:31.487Z,5.43
2018-04-01T05:52:31.668Z,5.44
2018-04-01T05:53:31.889Z,5.35
2018-04-01T05:54:32.116Z,5.38
2018-04-01T05:55:32.344Z,5.43
2018-04-01T05:56:32.567Z,5.44
2018-04-01T05:57:32.788Z,5.53
2018-04-01T05:58:33.014Z,5.56
2018-04-01T05:59:33.240Z,5.73
2018-04-01T06:00:33.466Z,5.90
2018-04-01T06:01:33.691Z,5.93
2018-04-01T06:02:33.913Z,6.01
2018-04-01T06:03:34.177Z,5.99
2018-04-01T06:04:34.358Z,5.97
2018-04-01T06:05:34.582Z,6.07
2018-04-01T06:06:34.808Z,6.27
2018-04-01T06:07:35.032Z,6.22
2018-04-01T06:08:35.269Z,6.16
2018-04-01T06:09:35.490Z,6.22
2018-04-01T06:10:35.718Z,6.19
2018-04-01T06:11:35.943Z,6.33
2018-04-01T06:12:36.167Z,6.35
2018-04-01T06:13:36.390Z,6.35
2018-04-01T06:14:36.618Z,6.31
2018-04-01T06:15:36.841Z,6.09
2018-04-01T06:16:37.066Z,6.11
2018-04-01T06:17:37.293Z,6.24
2018-04-01T06:18:37.518Z,6.05
2018-04-01T06:19:37.746Z,6.09
2018-04-01T06:20:37.969Z,6.14
2018-04-01T06:21:38.196Z,6.09
2018-04-01T06:22:38.423Z,5.91
2018-04-01T06:23:38.646Z,5.73
2018-04-01T06:24:38.868Z,5.62
2018-04-01T06:25:39.098Z,5.54
2018-04-01T06:26:39.321Z,5.68
2018-04-01T06:27:39.546Z,5.66
2018-04-01T06:28:39.765Z,5.68
2018-04-01T06:29:39.988Z,5.87
2018-04-01T06:30:40.214Z,5.82
2018-04-01T06:31:40.442Z,5.82
2018-04-01T06:32:40.668Z,5.68
2018-04-01T06:33:40.894Z,5.86
2018-04-01T06:34:41.121Z,5.86
2018-04-01T06:35:41.340Z,5.93
2018-04-01T06:36:41.567Z,5.83
2018-04-01T06:37:41.793Z,5.75
2018-04-01T06:38:42.016Z,5.82
2018-04-01T06:39:42.240Z,5.91
2018-04-01T06:40:42.467Z,5.98
2018-04-01T06:41:42.696Z,6.05
2018-04-01T06:42:42.922Z,6.20
2018-04-01T06:43:43.148Z,6.12
2018-04-01T06:44:43.374Z,6.26
2018-04-01T06:45:43.601Z,6.20
2018-04-01T06:46:43.824Z,6.16
2018-04-01T06:47:44.051Z,6.35
2018-04-01T06:48:44.279Z,6.30
2018-04-01T06:49:44.501Z,6.30
2018-04-01T06:50:44.795Z,6.30
2018-04-01T06:51:44.961Z,6.28
2018-04-01T06:52:45.193Z,6.33
2018-04-01T06:53:45.417Z,6.28
2018-04-01T06:54:45.646Z,6.46
2018-04-01T06:55:45.870Z,6.48
2018-04-01T06:56:46.096Z,6.57
2018-04-01T06:57:46.323Z,6.56
2018-04-01T06:58:46.547Z,6.79
2018-04-01T06:59:46.775Z,6.67
2018-04-01T07:00:47.000Z,6.82
2018-04-01T07:01:47.228Z,6.87
2018-04-01T07:02:47.455Z,6.81
2018-04-01T07:03:47.680Z,6.92
2018-04-01T07:04:47.905Z,6.95
2018-04-01T07:05:48.134Z,7.05
2018-04-01T07:06:48.356Z,7.15
2018-04-01T07:07:48.578Z,7.23
2018-04-01T07:08:48.808Z,7.24
2018-04-01T07:09:49.043Z,7.33
2018-04-01T07:10:49.264Z,7.43
2018-04-01T07:11:49.489Z,7.45
2018-04-01T07:12:49.716Z,7.56
2018-04-01T07:13:49.943Z,7.73
2018-04-01T07:14:50.173Z,7.75
2018-04-01T07:15:50.396Z,7.80
2018-04-01T07:16:50.632Z,7.87
2018-04-01T07:17:50.848Z,7.95
2018-04-01T07:18:51.071Z,8.08
2018-04-01T07:19:51.296Z,7.98
2018-04-01T07:20:51.519Z,8.13
2018-04-01T07:21:51.751Z,8.16
2018-04-01T07:22:51.969Z,8.19
2018-04-01T07:23:52.194Z,8.23
2018-04-01T07:24:52.421Z,8.37
2018-04-01T07:25:52.648Z,8.41
2018-04-01T07:26:52.872Z,8.46
2018-04-01T07:27:53.096Z,8.56
2018-04-01T07:28:53.332Z,8.58
2018-04-01T07:29:53.549Z,8.55
2018-04-01T07:30:53.772Z,8.69
2018-04-01T07:31:53.999Z,8.79
2018-04-01T07:32:54.226Z,8.91
2018-04-01T07:33:54.458Z,8.97
2018-04-01T07:34:54.685Z,9.10
2018-04-01T07:35:54.910Z,9.21
2018-04-01T07:36:55.134Z,9.22
2018-04-01T07:37:55.358Z,9.31
2018-04-01T07:38:55.585Z,9.31
2018-04-01T07:39:55.803Z,9.48
2018-04-01T07:40:56.034Z,9.51
2018-04-01T07:41:56.267Z,9.72
2018-04-01T07:42:56.484Z,9.84
2018-04-01T07:43:56.704Z,9.95
2018-04-01T07:44:56.933Z,10.02
2018-04-01T07:45:57.161Z,10.01
2018-04-01T07:46:57.386Z,10.10
2018-04-01T07:47:57.609Z,10.01
2018-04-01T07:48:57.834Z,10.10
2018-04-01T07:49:58.059Z,9.89
2018-04-01T07:50:58.284Z,9.99
2018-04-01T07:51:58.519Z,9.98
2018-04-01T07:52:58.741Z,9.95
2018-04-01T07:53:58.969Z,9.95
2018-04-01T07:54:59.195Z,9.89
2018-04-01T07:55:59.421Z,9.91
2018-04-01T07:56:59.651Z,9.86
2018-04-01T07:57:59.874Z,9.82
2018-04-01T07:59:00.102Z,9.83
2018-04-01T08:00:00.328Z,9.84
2018-04-01T08:01:00.555Z,9.83
2018-04-01T08:02:00.780Z,9.87
2018-04-01T08:03:01.020Z,9.77
2018-04-01T08:04:01.245Z,9.87
2018-04-01T08:05:01.470Z,9.89
2018-04-01T08:06:01.692Z,9.86
2018-04-01T08:07:01.923Z,10.02
2018-04-01T08:08:02.197Z,9.98
2018-04-01T08:09:02.372Z,10.01
2018-04-01T08:10:02.600Z,10.09
2018-04-01T08:11:02.823Z,10.05
2018-04-01T08:12:03.051Z,10.07
2018-04-01T08:13:03.276Z,10.07
2018-04-01T08:14:03.503Z,10.15
2018-04-01T08:15:03.729Z,10.13
2018-04-01T08:16:03.956Z,10.15
2018-04-01T08:17:04.181Z,10.10
2018-04-01T08:18:04.410Z,10.19
2018-04-01T08:19:04.637Z,10.15
2018-04-01T08:20:04.864Z,10.33
2018-04-01T08:21:05.090Z,10.30
2018-04-01T08:22:05.320Z,10.40
2018-04-01T08:23:05.544Z,10.40
2018-04-01T08:24:05.776Z,10.46
2018-04-01T08:25:05.998Z,10.51
2018-04-01T08:26:06.223Z,10.56
2018-04-01T08:27:06.459Z,10.41
2018-04-01T08:28:06.681Z,10.56
2018-04-01T08:29:06.896Z,10.53
2018-04-01T08:30:07.125Z,10.53
2018-04-01T08:31:07.350Z,10.56
2018-04-01T08:32:07.576Z,10.37
2018-04-01T08:33:07.804Z,10.38
2018-04-01T08:34:08.030Z,10.54
2018-04-01T08:35:08.258Z,10.44
2018-04-01T08:36:08.482Z,10.44
2018-04-01T08:37:08.711Z,10.41
2018-04-01T08:38:08.937Z,10.37
2018-04-01T08:39:09.165Z,10.51
2018-04-01T08:40:09.417Z,10.42
2018-04-01T08:41:09.622Z,10.37
2018-04-01T08:42:09.846Z,10.46
2018-04-01T08:43:10.074Z,10.40
2018-04-01T08:44:10.304Z,10.41
2018-04-01T08:45:10.526Z,10.41
2018-04-01T08:46:10.797Z,10.48
2018-04-01T08:47:10.982Z,10.44
2018-04-01T08:48:11.206Z,10.53
2018-04-01T08:49:11.431Z,10.51
2018-04-01T08:50:11.651Z,10.53
2018-04-01T08:51:11.878Z,10.51
2018-04-01T08:52:12.104Z,10.57
2018-04-01T08:53:12.333Z,10.57
2018-04-01T08:54:12.555Z,10.53
2018-04-01T08:55:12.783Z,10.53
2018-04-01T08:56:13.014Z,10.33
2018-04-01T08:57:13.238Z,10.30
2018-04-01T08:58:13.472Z,10.16
2018-04-01T08:59:13.697Z,10.13
2018-04-01T09:00:13.918Z,10.19
2018-04-01T09:01:14.147Z,10.25
2018-04-01T09:02:14.374Z,10.15
2018-04-01T09:03:14.598Z,10.17
2018-04-01T09:04:14.827Z,10.31
2018-04-01T09:05:15.054Z,10.28
2018-04-01T09:06:15.277Z,10.37
2018-04-01T09:07:15.502Z,10.53
2018-04-01T09:08:15.729Z,10.54
2018-04-01T09:09:15.952Z,10.67
2018-04-01T09:10:16.178Z,10.71
2018-04-01T09:11:16.408Z,10.76
2018-04-01T09:12:16.636Z,10.74
2018-04-01T09:13:16.869Z,10.79
2018-04-01T09:14:17.092Z,10.84
2018-04-01T09:15:17.322Z,10.84
2018-04-01T09:16:17.552Z,10.72
2018-04-01T09:17:17.791Z,10.82
2018-04-01T09:18:18.003Z,10.86
2018-04-01T09:19:18.231Z,10.93
2018-04-01T09:20:18.460Z,11.02
2018-04-01T09:21:18.688Z,11.02
2018-04-01T09:22:18.915Z,11.18
2018-04-01T09:23:19.152Z,11.33
2018-04-01T09:24:19.384Z,11.37
2018-04-01T09:25:19.609Z,11.48
2018-04-01T09:26:19.842Z,11.47
2018-04-01T09:27:20.070Z,11.43
2018-04-01T09:28:20.300Z,11.48
2018-04-01T09:29:20.519Z,11.47
2018-04-01T09:30:20.747Z,11.55
2018-04-01T09:31:20.976Z,11.65
2018-04-01T09:32:21.201Z,11.66
2018-04-01T09:33:21.430Z,11.57
2018-04-01T09:34:21.668Z,11.32
2018-04-01T09:35:21.900Z,11.30
2018-04-01T09:36:22.122Z,11.29
2018-04-01T09:37:22.351Z,11.36
2018-04-01T09:38:22.573Z,11.33
2018-04-01T09:39:22.801Z,11.32
2018-04-01T09:40:23.030Z,11.37
2018-04-01T09:41:23.258Z,11.36
2018-04-01T09:42:23.479Z,11.26
2018-04-01T09:43:23.712Z,11.36
2018-04-01T09:44:23.941Z,11.40
2018-04-01T09:45:24.169Z,11.37
2018-04-01T09:46:24.400Z,11.36
2018-04-01T09:47:24.626Z,11.36
2018-04-01T09:48:24.852Z,11.51
2018-04-01T09:49:25.082Z,11.44
2018-04-01T09:50:25.311Z,11.47
2018-04-01T09:51:25.539Z,11.50
2018-04-01T09:52:25.766Z,11.55
2018-04-01T09:53:25.991Z,11.70
2018-04-01T09:54:26.222Z,11.73
2018-04-01T09:55:26.446Z,11.59
2018-04-01T09:56:26.677Z,11.68
2018-04-01T09:57:26.909Z,11.66
2018-04-01T09:58:27.136Z,11.63
2018-04-01T09:59:27.363Z,11.65
2018-04-01T10:00:27.593Z,11.65
2018-04-01T10:01:27.823Z,11.45
2018-04-01T10:02:28.048Z,11.27
2018-04-01T10:03:28.277Z,11.12
2018-04-01T10:04:28.506Z,11.11
2018-04-01T10:05:28.733Z,10.99
2018-04-01T10:06:28.960Z,10.92
2018-04-01T10:07:29.189Z,10.94
2018-04-01T10:08:29.414Z,10.87
2018-04-01T10:09:29.640Z,10.92
2018-04-01T10:10:29.868Z,10.82
2018-04-01T10:11:30.095Z,10.71
2018-04-01T10:12:30.326Z,10.60
2018-04-01T10:13:30.552Z,10.57
2018-04-01T10:14:30.780Z,10.38
2018-04-01T10:15:31.008Z,10.33
2018-04-01T10:16:31.236Z,10.23
2018-04-01T10:17:31.460Z,10.28
2018-04-01T10:18:31.686Z,10.25
2018-04-01T10:19:31.913Z,10.26
2018-04-01T10:20:32.147Z,10.30
2018-04-01T10:21:32.369Z,10.28
2018-04-01T10:22:32.600Z,10.33
2018-04-01T10:23:32.817Z,10.35
2018-04-01T10:24:33.046Z,10.30
2018-04-01T10:25:33.278Z,10.31
2018-04-01T10:26:33.492Z,10.37
2018-04-01T10:27:33.720Z,10.35
2018-04-01T10:28:33.949Z,10.37
2018-04-01T10:29:34.176Z,10.30
2018-04-01T10:30:34.403Z,10.41
2018-04-01T10:31:34.637Z,10.44
2018-04-01T10:32:34.864Z,10.40
2018-04-01T10:33:35.087Z,10.42
2018-04-01T10:34:35.314Z,10.51
2018-04-01T10:35:35.539Z,10.53
2018-04-01T10:36:35.764Z,10.53
2018-04-01T10:37:35.991Z,10.44
2018-04-01T10:38:36.219Z,10.48
2018-04-01T10:39:36.441Z,10.42
2018-04-01T10:40:36.666Z,10.30
2018-04-01T10:41:36.894Z,10.19
2018-04-01T10:42:37.124Z,10.13
2018-04-01T10:43:37.349Z,10.16
2018-04-01T10:44:37.577Z,10.09
2018-04-01T10:45:37.807Z,10.09
2018-04-01T10:46:38.030Z,10.04
2018-04-01T10:47:38.258Z,10.13
2018-04-01T10:48:38.491Z,10.04
2018-04-01T10:49:38.717Z,10.12
2018-04-01T10:50:38.954Z,10.16
2018-04-01T10:51:39.171Z,10.16
2018-04-01T10:52:39.396Z,10.09
2018-04-01T10:53:39.624Z,10.02
2018-04-01T10:54:39.850Z,10.01
2018-04-01T10:55:40.081Z,9.89
2018-04-01T10:56:40.308Z,9.97
2018-04-01T10:57:40.534Z,10.04
2018-04-01T10:58:40.762Z,9.98
2018-04-01T10:59:40.989Z,9.91
2018-04-01T11:00:41.212Z,9.92
2018-04-01T11:01:41.439Z,9.98
2018-04-01T11:02:41.677Z,9.91
2018-04-01T11:03:41.896Z,9.86
2018-04-01T11:04:42.115Z,9.84
2018-04-01T11:05:42.339Z,9.80
2018-04-01T11:06:42.566Z,9.86
2018-04-01T11:07:42.798Z,9.80
2018-04-01T11:08:43.018Z,9.87
2018-04-01T11:09:43.248Z,9.89
2018-04-01T11:10:43.469Z,10.07
2018-04-01T11:11:43.703Z,10.13
2018-04-01T11:12:43.927Z,10.17
2018-04-01T11:13:44.148Z,10.31
2018-04-01T11:14:44.379Z,10.26
2018-04-01T11:15:44.601Z,10.40
2018-04-01T11:16:44.830Z,10.35
2018-04-01T11:17:45.052Z,10.37
2018-04-01T11:18:45.281Z,10.30
2018-04-01T11:19:45.511Z,10.30
2018-04-01T11:20:45.735Z,10.31
2018-04-01T11:21:45.962Z,10.40
2018-04-01T11:22:46.198Z,10.40
2018-04-01T11:23:46.417Z,10.42
2018-04-01T11:24:46.646Z,10.56
2018-04-01T11:25:46.872Z,10.49
2018-04-01T11:26:47.156Z,10.67
2018-04-01T11:27:47.373Z,10.51
2018-04-01T11:28:47.597Z,10.53
2018-04-01T11:29:47.826Z,10.74
2018-04-01T11:30:48.053Z,10.67
2018-04-01T11:31:48.276Z,10.60
2018-04-01T11:32:48.498Z,10.46
2018-04-01T11:33:48.736Z,10.30
2018-04-01T11:34:48.954Z,10.30
2018-04-01T11:35:49.185Z,10.48
2018-04-01T11:36:49.416Z,10.48
2018-04-01T11:37:49.635Z,10.31
2018-04-01T11:38:49.866Z,10.48
2018-04-01T11:39:50.095Z,10.44
2018-04-01T11:40:50.324Z,10.57
2018-04-01T11:41:50.560Z,10.64
2018-04-01T11:42:50.794Z,10.57
2018-04-01T11:43:51.024Z,10.28
2018-04-01T11:44:51.249Z,10.26
2018-04-01T11:45:52.109Z,10.01
2018-04-01T11:46:51.723Z,9.68
2018-04-01T11:47:51.952Z,9.55
2018-04-01T11:48:52.175Z,9.40
2018-04-01T11:49:52.400Z,9.40
2018-04-01T11:50:52.635Z,9.23
2018-04-01T11:51:52.865Z,9.31
2018-04-01T11:52:53.085Z,9.32
2018-04-01T11:53:53.304Z,9.32
2018-04-01T11:54:53.537Z,9.46
2018-04-01T11:55:53.762Z,9.39
2018-04-01T11:56:54.029Z,9.50
2018-04-01T11:57:54.213Z,9.36
2018-04-01T11:58:54.436Z,9.29
2018-04-01T11:59:54.662Z,9.41
2018-04-01T12:00:54.891Z,9.25
2018-04-01T12:01:55.116Z,9.50
2018-04-01T12:02:55.409Z,9.55
2018-04-01T12:03:55.586Z,9.74
2018-04-01T12:04:55.800Z,9.82
2018-04-01T12:05:56.025Z,9.79
2018-04-01T12:06:56.245Z,10.04
2018-04-01T12:07:56.475Z,10.19
2018-04-01T12:08:56.724Z,10.40
2018-04-01T12:09:56.927Z,10.49
2018-04-01T12:10:57.158Z,10.63
2018-04-01T12:11:57.382Z,10.71
2018-04-01T12:12:57.613Z,10.78
2018-04-01T12:13:57.847Z,10.82
2018-04-01T12:14:58.065Z,10.90
2018-04-01T12:15:58.293Z,10.96
2018-04-01T12:16:58.522Z,11.07
2018-04-01T12:17:58.748Z,11.17
2018-04-01T12:18:58.982Z,10.93
2018-04-01T12:19:59.210Z,10.81
2018-04-01T12:20:59.444Z,10.82
2018-04-01T12:21:59.677Z,10.97
2018-04-01T12:22:59.905Z,10.90
2018-04-01T12:24:00.135Z,10.72
2018-04-01T12:25:00.373Z,10.74
2018-04-01T12:26:00.599Z,10.54
2018-04-01T12:27:00.838Z,10.56
2018-04-01T12:28:01.070Z,10.61
2018-04-01T12:29:01.305Z,10.74
2018-04-01T12:30:01.534Z,10.74
2018-04-01T12:31:01.763Z,10.72
2018-04-01T12:32:01.998Z,10.72
2018-04-01T12:33:02.228Z,10.75
2018-04-01T12:34:02.456Z,10.84
2018-04-01T12:35:02.698Z,10.92
2018-04-01T12:36:02.934Z,10.92
2018-04-01T12:37:03.181Z,10.86
2018-04-01T12:38:03.395Z,10.99
2018-04-01T12:39:03.628Z,10.87
2018-04-01T12:40:03.857Z,10.78
2018-04-01T12:41:04.098Z,10.82
2018-04-01T12:42:04.312Z,10.86
2018-04-01T12:43:04.538Z,10.84
2018-04-01T12:44:04.765Z,10.59
2018-04-01T12:45:04.997Z,10.51
2018-04-01T12:46:05.222Z,10.49
2018-04-01T12:47:05.451Z,10.41
2018-04-01T12:48:05.691Z,10.48
2018-04-01T12:49:05.911Z,10.30
2018-04-01T12:50:06.143Z,10.44
2018-04-01T12:51:06.370Z,10.42
2018-04-01T12:52:06.608Z,10.54
2018-04-01T12:53:06.825Z,10.56
2018-04-01T12:54:07.053Z,10.49
2018-04-01T12:55:07.272Z,10.44
2018-04-01T12:56:07.498Z,10.42
2018-04-01T12:57:07.728Z,10.37
2018-04-01T12:58:07.959Z,10.38
2018-04-01T12:59:08.201Z,10.40
2018-04-01T13:00:08.435Z,10.42
2018-04-01T13:01:08.712Z,10.51
2018-04-01T13:02:08.942Z,10.57
2018-04-01T13:03:09.178Z,10.67
2018-04-01T13:04:09.473Z,10.72
2018-04-01T13:05:09.575Z,10.84
2018-04-01T13:06:09.806Z,10.81
2018-04-01T13:07:10.040Z,10.96
2018-04-01T13:08:10.278Z,10.76
2018-04-01T13:09:10.505Z,10.68
2018-04-01T13:10:10.748Z,10.42
2018-04-01T13:11:10.979Z,10.33
2018-04-01T13:12:11.198Z,10.42